createdAt,value
2022-12-22T00:01:55.509Z,-0.67
2022-12-22T00:04:42.506Z,-0.67
2022-12-22T00:07:29.218Z,-0.68
2022-12-22T00:10:15.975Z,-0.67
2022-12-22T00:13:02.811Z,-0.67
2022-12-22T00:15:52.429Z,-0.63
2022-12-22T00:18:39.571Z,-0.61
2022-12-22T00:21:30.885Z,-0.58
2022-12-22T00:24:18.187Z,-0.55
2022-12-22T00:27:05.486Z,-0.49
2022-12-22T00:29:54.630Z,-0.47
2022-12-22T00:32:42.199Z,-0.44
2022-12-22T00:35:33.231Z,-0.45
2022-12-22T00:38:20.048Z,-0.49
2022-12-22T00:41:06.804Z,-0.48
2022-12-22T00:43:53.434Z,-0.54
2022-12-22T00:46:40.351Z,-0.66
2022-12-22T00:49:27.724Z,-0.74
2022-12-22T00:52:14.615Z,-0.86
2022-12-22T00:55:01.433Z,-0.93
2022-12-22T00:57:48.245Z,-0.96
2022-12-22T01:00:37.529Z,-1.05
2022-12-22T01:03:24.300Z,-1.08
2022-12-22T01:06:11.228Z,-1.03
2022-12-22T01:08:58.008Z,-0.99
2022-12-22T01:11:45.802Z,-0.99
2022-12-22T01:14:34.794Z,-1.06
2022-12-22T01:17:21.563Z,-1.07
2022-12-22T01:20:08.263Z,-1.08
2022-12-22T01:22:54.955Z,-1.08
2022-12-22T01:25:41.899Z,-1.04
2022-12-22T01:28:35.707Z,-0.97
2022-12-22T01:31:36.515Z,-0.95
2022-12-22T01:34:23.489Z,-0.88
2022-12-22T01:37:10.339Z,-0.84
2022-12-22T01:39:56.877Z,-0.80
2022-12-22T01:42:44.113Z,-0.81
2022-12-22T01:45:40.240Z,-0.81
2022-12-22T01:48:39.021Z,-0.82
2022-12-22T01:51:30.852Z,-0.85
2022-12-22T01:54:18.098Z,-0.86
2022-12-22T01:57:04.795Z,-0.85
2022-12-22T01:59:51.588Z,-0.86
2022-12-22T02:02:40.385Z,-0.89
2022-12-22T02:05:29.060Z,-0.93
2022-12-22T02:08:40.819Z,-0.96
2022-12-22T02:11:52.517Z,-0.95
2022-12-22T02:14:59.066Z,-0.98
2022-12-22T02:17:48.939Z,-0.94
2022-12-22T02:21:15.546Z,-0.88
2022-12-22T02:24:24.243Z,-0.85
2022-12-22T02:27:14.192Z,-0.84
2022-12-22T02:30:07.639Z,-0.80
2022-12-22T02:33:05.384Z,-0.79
2022-12-22T02:36:04.906Z,-0.79
2022-12-22T02:39:18.052Z,-0.85
2022-12-22T02:42:43.950Z,-0.90
2022-12-22T02:45:33.883Z,-0.98
2022-12-22T02:48:57.321Z,-1.00
2022-12-22T02:51:46.717Z,-1.11
2022-12-22T02:54:35.421Z,-1.13
2022-12-22T02:57:24.829Z,-1.21
2022-12-22T03:00:11.529Z,-1.30
2022-12-22T03:02:58.512Z,-1.34
2022-12-22T03:05:45.273Z,-1.40
2022-12-22T03:08:31.722Z,-1.47
2022-12-22T03:11:18.478Z,-1.47
2022-12-22T03:14:05.368Z,-1.47
2022-12-22T03:16:52.157Z,-1.40
2022-12-22T03:19:38.870Z,-1.28
2022-12-22T03:22:25.565Z,-1.18
2022-12-22T03:25:12.259Z,-1.11
2022-12-22T03:27:40.183Z,-1.02
2022-12-22T03:30:09.011Z,-1.00
2022-12-22T03:32:36.891Z,-0.93
2022-12-22T03:35:05.243Z,-0.87
2022-12-22T03:37:33.280Z,-0.82
2022-12-22T03:40:01.297Z,-0.79
2022-12-22T03:42:47.912Z,-0.77
2022-12-22T03:45:34.789Z,-0.74
2022-12-22T03:48:02.970Z,-0.73
2022-12-22T03:50:30.963Z,-0.77
2022-12-22T03:52:59.007Z,-0.72
2022-12-22T03:55:27.385Z,-0.67
2022-12-22T03:57:55.436Z,-0.71
2022-12-22T04:00:23.778Z,-0.77
2022-12-22T04:02:51.912Z,-0.79
2022-12-22T04:05:20.095Z,-0.82
2022-12-22T04:07:48.133Z,-0.79
2022-12-22T04:10:34.904Z,-0.83
2022-12-22T04:13:02.935Z,-0.81
2022-12-22T04:15:32.364Z,-0.81
2022-12-22T04:18:00.502Z,-0.78
2022-12-22T04:20:28.551Z,-0.74
2022-12-22T04:22:56.910Z,-0.71
2022-12-22T04:25:29.073Z,-0.62
2022-12-22T04:27:57.267Z,-0.68
2022-12-22T04:30:25.193Z,-0.65
2022-12-22T04:32:53.234Z,-0.60
2022-12-22T04:35:21.300Z,-0.59
2022-12-22T04:37:50.567Z,-0.58
2022-12-22T04:40:21.893Z,-0.58
2022-12-22T04:42:50.180Z,-0.58
2022-12-22T04:45:18.291Z,-0.59
2022-12-22T04:47:46.306Z,-0.56
2022-12-22T04:50:18.122Z,-0.56
2022-12-22T04:52:46.474Z,-0.53
2022-12-22T04:55:14.919Z,-0.57
2022-12-22T04:57:43.082Z,-0.59
2022-12-22T05:00:11.840Z,-0.65
2022-12-22T05:02:40.409Z,-0.60
2022-12-22T05:05:08.893Z,-0.60
2022-12-22T05:07:37.703Z,-0.50
2022-12-22T05:10:06.292Z,-0.45
2022-12-22T05:12:53.001Z,-0.42
2022-12-22T05:15:26.069Z,-0.35
2022-12-22T05:17:54.566Z,-0.29
2022-12-22T05:20:23.231Z,-0.25
2022-12-22T05:22:51.618Z,-0.25
2022-12-22T05:25:22.267Z,-0.21
2022-12-22T05:27:51.044Z,-0.20
2022-12-22T05:30:20.288Z,-0.17
2022-12-22T05:32:48.528Z,-0.15
2022-12-22T05:35:16.803Z,-0.19
2022-12-22T05:37:46.310Z,-0.09
2022-12-22T05:40:14.434Z,-0.05
2022-12-22T05:42:43.183Z,-0.02
2022-12-22T05:45:12.388Z,0.02
2022-12-22T05:47:41.351Z,0.08
2022-12-22T05:50:10.852Z,0.09
2022-12-22T05:52:39.269Z,0.11
2022-12-22T05:55:07.927Z,0.07
2022-12-22T05:57:36.036Z,0.06
2022-12-22T06:00:09.485Z,0.03
2022-12-22T06:02:42.123Z,0.09
2022-12-22T06:05:12.299Z,0.15
2022-12-22T06:07:40.292Z,0.16
2022-12-22T06:10:12.714Z,0.21
2022-12-22T06:12:41.987Z,0.14
2022-12-22T06:15:13.561Z,0.11
2022-12-22T06:17:44.606Z,0.21
2022-12-22T06:20:14.534Z,0.21
2022-12-22T06:22:42.756Z,0.16
2022-12-22T06:25:17.292Z,0.20
2022-12-22T06:27:47.653Z,0.22
2022-12-22T06:30:16.264Z,0.26
2022-12-22T06:32:44.730Z,0.23
2022-12-22T06:35:12.928Z,0.23
2022-12-22T06:37:41.090Z,0.24
2022-12-22T06:40:09.757Z,0.28
2022-12-22T06:43:00.701Z,0.29
2022-12-22T06:45:32.256Z,0.32
2022-12-22T06:48:00.709Z,0.39
2022-12-22T06:50:28.831Z,0.46
2022-12-22T06:52:57.215Z,0.50
2022-12-22T06:55:25.253Z,0.53
2022-12-22T06:57:53.190Z,0.57
2022-12-22T07:00:21.559Z,0.61
2022-12-22T07:02:49.703Z,0.67
2022-12-22T07:05:17.935Z,0.74
2022-12-22T07:07:46.315Z,0.82
2022-12-22T07:10:14.447Z,0.86
2022-12-22T07:12:42.684Z,0.90
2022-12-22T07:15:11.022Z,0.95
2022-12-22T07:17:41.676Z,1.01
2022-12-22T07:20:10.553Z,1.04
2022-12-22T07:22:38.590Z,1.04
2022-12-22T07:25:07.999Z,1.06
2022-12-22T07:27:36.073Z,1.07
2022-12-22T07:30:04.450Z,1.09
2022-12-22T07:32:32.591Z,1.08
2022-12-22T07:35:05.290Z,1.09
2022-12-22T07:37:34.123Z,1.10
2022-12-22T07:40:02.375Z,1.11
2022-12-22T07:42:47.554Z,1.13
2022-12-22T07:45:20.440Z,1.14
2022-12-22T07:47:52.849Z,1.17
2022-12-22T07:50:32.481Z,1.22
2022-12-22T07:53:03.174Z,1.31
2022-12-22T07:55:35.595Z,1.42
2022-12-22T07:58:03.671Z,1.51
2022-12-22T08:00:31.728Z,1.57
2022-12-22T08:03:01.881Z,1.62
2022-12-22T08:05:30.451Z,1.61
2022-12-22T08:07:58.572Z,1.58
2022-12-22T08:10:26.689Z,1.55
2022-12-22T08:12:55.094Z,1.65
2022-12-22T08:15:23.135Z,1.70
2022-12-22T08:17:51.175Z,1.73
2022-12-22T08:20:19.237Z,1.74
2022-12-22T08:22:49.521Z,1.73
2022-12-22T08:25:17.594Z,1.76
2022-12-22T08:27:49.075Z,1.81
2022-12-22T08:30:17.156Z,1.89
2022-12-22T08:32:48.381Z,1.94
2022-12-22T08:35:16.864Z,1.96
2022-12-22T08:37:46.156Z,2.05
2022-12-22T08:40:24.492Z,2.09
2022-12-22T08:42:56.569Z,2.15
2022-12-22T08:45:25.151Z,2.21
2022-12-22T08:47:53.098Z,2.27
2022-12-22T08:50:21.433Z,2.39
2022-12-22T08:52:49.427Z,2.56
2022-12-22T08:55:17.482Z,2.69
2022-12-22T08:57:55.791Z,2.83
2022-12-22T09:00:24.943Z,2.98
2022-12-22T09:02:53.337Z,3.07
2022-12-22T09:05:21.693Z,3.18
2022-12-22T09:07:49.809Z,3.42
2022-12-22T09:10:17.916Z,3.58
2022-12-22T09:12:47.907Z,3.67
2022-12-22T09:15:15.899Z,3.80
2022-12-22T09:17:43.960Z,3.97
2022-12-22T09:20:12.303Z,4.10
2022-12-22T09:22:41.130Z,3.89
2022-12-22T09:25:10.803Z,3.55
2022-12-22T09:27:38.904Z,3.47
2022-12-22T09:30:08.924Z,3.40
2022-12-22T09:32:36.945Z,3.27
2022-12-22T09:35:05.470Z,3.10
2022-12-22T09:37:33.474Z,3.14
2022-12-22T09:40:01.635Z,3.05
2022-12-22T09:42:32.630Z,3.05
2022-12-22T09:45:00.657Z,3.02
2022-12-22T09:47:37.588Z,2.97
2022-12-22T09:50:08.969Z,3.03
2022-12-22T09:52:36.945Z,3.09
2022-12-22T09:55:25.525Z,3.11
2022-12-22T09:57:54.585Z,3.22
2022-12-22T10:00:28.488Z,3.28
2022-12-22T10:03:11.781Z,3.35
2022-12-22T10:05:47.470Z,3.43
2022-12-22T10:08:19.476Z,3.45
2022-12-22T10:10:53.677Z,3.53
2022-12-22T10:13:22.379Z,3.61
2022-12-22T10:15:50.307Z,3.73
2022-12-22T10:18:21.499Z,3.77
2022-12-22T10:21:11.328Z,3.76
2022-12-22T10:23:47.273Z,3.79
2022-12-22T10:26:29.572Z,3.83
2022-12-22T10:29:11.988Z,3.92
2022-12-22T10:31:58.195Z,3.89
2022-12-22T10:34:26.744Z,3.96
2022-12-22T10:36:58.029Z,4.01
2022-12-22T10:39:32.044Z,4.11
2022-12-22T10:42:18.024Z,4.27
2022-12-22T10:44:48.150Z,4.33
2022-12-22T10:47:20.466Z,4.37
2022-12-22T10:49:50.147Z,4.36
2022-12-22T10:52:29.244Z,4.33
2022-12-22T10:55:17.883Z,4.25
2022-12-22T10:57:46.593Z,4.22
2022-12-22T11:00:24.823Z,4.26
2022-12-22T11:03:00.762Z,4.24
2022-12-22T11:05:29.735Z,4.22
2022-12-22T11:08:01.986Z,4.28
2022-12-22T11:10:41.823Z,4.42
2022-12-22T11:13:27.673Z,4.43
2022-12-22T11:16:17.381Z,4.34
2022-12-22T11:19:08.750Z,4.27
2022-12-22T11:22:09.826Z,4.23
2022-12-22T11:24:50.060Z,4.34
2022-12-22T11:27:46.120Z,4.50
2022-12-22T11:30:19.493Z,4.59
